sensor_id;sensor_type;location;lat;lon;timestamp;P1;durP1;ratioP1;P2;durP2;ratioP2
1977;SDS011;989;53.016;8.346;2023-02-13T00:00:22;29.47;;;12.93;;
1977;SDS011;989;53.016;8.346;2023-02-13T00:02:49;32.13;;;13.32;;
1977;SDS011;989;53.016;8.346;2023-02-13T00:05:15;29.52;;;12.00;;
1977;SDS011;989;53.016;8.346;2023-02-13T00:07:41;28.00;;;13.13;;
1977;SDS011;989;53.016;8.346;2023-02-13T00:10:07;38.50;;;13.43;;
1977;SDS011;989;53.016;8.346;2023-02-13T00:12:33;37.72;;;13.98;;
1977;SDS011;989;53.016;8.346;2023-02-13T00:14:59;25.40;;;12.73;;
1977;SDS011;989;53.016;8.346;2023-02-13T00:17:25;33.80;;;13.30;;
1977;SDS011;989;53.016;8.346;2023-02-13T00:19:51;25.73;;;13.35;;
1977;SDS011;989;53.016;8.346;2023-02-13T00:22:16;26.47;;;12.00;;
1977;SDS011;989;53.016;8.346;2023-02-13T00:24:42;28.73;;;13.13;;
1977;SDS011;989;53.016;8.346;2023-02-13T00:27:08;34.07;;;12.20;;
1977;SDS011;989;53.016;8.346;2023-02-13T00:29:34;28.57;;;13.40;;
1977;SDS011;989;53.016;8.346;2023-02-13T00:31:59;28.83;;;12.53;;
1977;SDS011;989;53.016;8.346;2023-02-13T00:34:25;35.17;;;14.20;;
1977;SDS011;989;53.016;8.346;2023-02-13T00:36:51;40.15;;;13.75;;
1977;SDS011;989;53.016;8.346;2023-02-13T00:39:17;25.17;;;14.10;;
1977;SDS011;989;53.016;8.346;2023-02-13T00:41:43;27.93;;;13.47;;
1977;SDS011;989;53.016;8.346;2023-02-13T00:44:08;31.73;;;13.00;;
1977;SDS011;989;53.016;8.346;2023-02-13T00:46:35;28.30;;;11.80;;
1977;SDS011;989;53.016;8.346;2023-02-13T00:49:01;24.23;;;12.70;;
1977;SDS011;989;53.016;8.346;2023-02-13T00:51:27;32.20;;;13.10;;
1977;SDS011;989;53.016;8.346;2023-02-13T00:53:53;29.97;;;12.87;;
1977;SDS011;989;53.016;8.346;2023-02-13T00:56:18;23.80;;;11.67;;
1977;SDS011;989;53.016;8.346;2023-02-13T00:58:44;36.93;;;15.00;;
1977;SDS011;989;53.016;8.346;2023-02-13T01:01:10;42.17;;;17.60;;
1977;SDS011;989;53.016;8.346;2023-02-13T01:03:36;30.90;;;13.80;;
1977;SDS011;989;53.016;8.346;2023-02-13T01:06:01;34.07;;;13.70;;
1977;SDS011;989;53.016;8.346;2023-02-13T01:08:27;35.73;;;14.30;;
1977;SDS011;989;53.016;8.346;2023-02-13T01:10:53;37.97;;;14.43;;
1977;SDS011;989;53.016;8.346;2023-02-13T01:13:19;33.50;;;14.82;;
1977;SDS011;989;53.016;8.346;2023-02-13T01:15:45;33.30;;;14.03;;
1977;SDS011;989;53.016;8.346;2023-02-13T01:18:12;36.42;;;16.02;;
1977;SDS011;989;53.016;8.346;2023-02-13T01:20:40;33.33;;;14.57;;
1977;SDS011;989;53.016;8.346;2023-02-13T01:23:08;37.03;;;16.13;;
1977;SDS011;989;53.016;8.346;2023-02-13T01:25:40;40.92;;;15.77;;
1977;SDS011;989;53.016;8.346;2023-02-13T01:28:06;40.70;;;15.70;;
1977;SDS011;989;53.016;8.346;2023-02-13T01:30:32;34.45;;;13.27;;
1977;SDS011;989;53.016;8.346;2023-02-13T01:32:58;37.57;;;16.00;;
1977;SDS011;989;53.016;8.346;2023-02-13T01:35:24;41.77;;;15.87;;
1977;SDS011;989;53.016;8.346;2023-02-13T01:37:49;32.00;;;14.50;;
1977;SDS011;989;53.016;8.346;2023-02-13T01:40:15;43.80;;;17.80;;
1977;SDS011;989;53.016;8.346;2023-02-13T01:42:41;37.17;;;15.70;;
1977;SDS011;989;53.016;8.346;2023-02-13T01:45:18;40.13;;;13.98;;
1977;SDS011;989;53.016;8.346;2023-02-13T01:47:56;40.80;;;15.85;;
1977;SDS011;989;53.016;8.346;2023-02-13T01:50:29;39.65;;;15.55;;
1977;SDS011;989;53.016;8.346;2023-02-13T01:56:39;54.60;;;15.85;;
1977;SDS011;989;53.016;8.346;2023-02-13T01:59:01;40.53;;;14.95;;
1977;SDS011;989;53.016;8.346;2023-02-13T02:01:32;39.00;;;15.30;;
1977;SDS011;989;53.016;8.346;2023-02-13T02:04:21;34.95;;;14.70;;
1977;SDS011;989;53.016;8.346;2023-02-13T02:06:51;48.72;;;17.05;;
1977;SDS011;989;53.016;8.346;2023-02-13T02:09:24;47.67;;;16.25;;
1977;SDS011;989;53.016;8.346;2023-02-13T02:11:55;41.55;;;15.63;;
1977;SDS011;989;53.016;8.346;2023-02-13T02:14:27;32.65;;;15.32;;
1977;SDS011;989;53.016;8.346;2023-02-13T02:16:53;39.10;;;16.27;;
1977;SDS011;989;53.016;8.346;2023-02-13T02:19:29;58.57;;;19.50;;
1977;SDS011;989;53.016;8.346;2023-02-13T02:28:07;44.28;;;18.10;;
1977;SDS011;989;53.016;8.346;2023-02-13T02:31:18;37.80;;;17.25;;
1977;SDS011;989;53.016;8.346;2023-02-13T02:40:50;55.33;;;18.15;;
1977;SDS011;989;53.016;8.346;2023-02-13T02:46:23;40.33;;;18.08;;
1977;SDS011;989;53.016;8.346;2023-02-13T02:51:58;55.20;;;18.23;;
1977;SDS011;989;53.016;8.346;2023-02-13T02:54:37;51.33;;;19.05;;
1977;SDS011;989;53.016;8.346;2023-02-13T02:57:31;51.95;;;20.48;;
1977;SDS011;989;53.016;8.346;2023-02-13T03:00:21;50.58;;;17.83;;
1977;SDS011;989;53.016;8.346;2023-02-13T03:03:10;40.47;;;16.75;;
1977;SDS011;989;53.016;8.346;2023-02-13T03:06:42;48.00;;;17.60;;
1977;SDS011;989;53.016;8.346;2023-02-13T03:09:19;52.60;;;17.33;;
1977;SDS011;989;53.016;8.346;2023-02-13T03:12:11;53.60;;;18.48;;
1977;SDS011;989;53.016;8.346;2023-02-13T03:15:01;45.97;;;18.75;;
1977;SDS011;989;53.016;8.346;2023-02-13T03:17:27;43.97;;;17.85;;
1977;SDS011;989;53.016;8.346;2023-02-13T03:23:13;43.22;;;17.25;;
1977;SDS011;989;53.016;8.346;2023-02-13T03:29:33;41.78;;;17.67;;
1977;SDS011;989;53.016;8.346;2023-02-13T03:35:41;59.60;;;19.80;;
1977;SDS011;989;53.016;8.346;2023-02-13T03:41:06;46.15;;;20.65;;
1977;SDS011;989;53.016;8.346;2023-02-13T03:44:05;56.95;;;22.35;;
1977;SDS011;989;53.016;8.346;2023-02-13T03:46:40;66.03;;;20.63;;
1977;SDS011;989;53.016;8.346;2023-02-13T03:49:11;64.32;;;21.33;;
1977;SDS011;989;53.016;8.346;2023-02-13T03:52:08;54.38;;;19.88;;
1977;SDS011;989;53.016;8.346;2023-02-13T03:54:49;48.60;;;20.42;;
1977;SDS011;989;53.016;8.346;2023-02-13T03:57:39;50.58;;;19.13;;
1977;SDS011;989;53.016;8.346;2023-02-13T04:00:27;53.40;;;19.10;;
1977;SDS011;989;53.016;8.346;2023-02-13T04:03:05;57.05;;;20.40;;
1977;SDS011;989;53.016;8.346;2023-02-13T04:05:43;48.65;;;18.30;;
1977;SDS011;989;53.016;8.346;2023-02-13T04:08:15;54.15;;;19.58;;
1977;SDS011;989;53.016;8.346;2023-02-13T04:10:45;50.53;;;18.80;;
1977;SDS011;989;53.016;8.346;2023-02-13T04:13:34;61.95;;;20.25;;
1977;SDS011;989;53.016;8.346;2023-02-13T04:18:36;69.38;;;21.35;;
1977;SDS011;989;53.016;8.346;2023-02-13T04:21:04;71.45;;;20.90;;
1977;SDS011;989;53.016;8.346;2023-02-13T04:23:32;56.22;;;22.40;;
1977;SDS011;989;53.016;8.346;2023-02-13T04:25:59;54.97;;;21.77;;
1977;SDS011;989;53.016;8.346;2023-02-13T04:28:28;58.15;;;20.45;;
1977;SDS011;989;53.016;8.346;2023-02-13T04:30:54;52.43;;;19.97;;
1977;SDS011;989;53.016;8.346;2023-02-13T04:33:19;59.83;;;21.20;;
1977;SDS011;989;53.016;8.346;2023-02-13T04:35:45;55.80;;;21.00;;
1977;SDS011;989;53.016;8.346;2023-02-13T04:38:11;62.47;;;20.50;;
1977;SDS011;989;53.016;8.346;2023-02-13T04:40:36;55.47;;;18.90;;
1977;SDS011;989;53.016;8.346;2023-02-13T04:43:02;46.10;;;19.10;;
1977;SDS011;989;53.016;8.346;2023-02-13T04:45:27;44.93;;;18.20;;
1977;SDS011;989;53.016;8.346;2023-02-13T04:47:53;60.60;;;18.90;;
1977;SDS011;989;53.016;8.346;2023-02-13T04:50:21;58.72;;;18.35;;
1977;SDS011;989;53.016;8.346;2023-02-13T04:52:49;54.90;;;20.08;;
1977;SDS011;989;53.016;8.346;2023-02-13T04:55:19;54.30;;;19.65;;
1977;SDS011;989;53.016;8.346;2023-02-13T04:57:46;56.80;;;20.75;;
1977;SDS011;989;53.016;8.346;2023-02-13T05:00:12;67.87;;;21.43;;
1977;SDS011;989;53.016;8.346;2023-02-13T05:02:38;73.82;;;21.77;;
1977;SDS011;989;53.016;8.346;2023-02-13T05:05:04;40.70;;;20.13;;
1977;SDS011;989;53.016;8.346;2023-02-13T05:07:30;60.30;;;19.83;;
1977;SDS011;989;53.016;8.346;2023-02-13T05:09:56;52.90;;;21.00;;
1977;SDS011;989;53.016;8.346;2023-02-13T05:12:21;46.13;;;18.60;;
1977;SDS011;989;53.016;8.346;2023-02-13T05:14:47;61.70;;;20.57;;
1977;SDS011;989;53.016;8.346;2023-02-13T05:17:12;50.40;;;20.30;;
1977;SDS011;989;53.016;8.346;2023-02-13T05:19:38;77.17;;;21.53;;
1977;SDS011;989;53.016;8.346;2023-02-13T05:22:04;61.27;;;21.33;;
1977;SDS011;989;53.016;8.346;2023-02-13T05:24:48;67.68;;;21.00;;
1977;SDS011;989;53.016;8.346;2023-02-13T05:27:13;57.70;;;19.87;;
1977;SDS011;989;53.016;8.346;2023-02-13T05:29:39;69.40;;;21.87;;
1977;SDS011;989;53.016;8.346;2023-02-13T05:32:04;68.80;;;21.70;;
1977;SDS011;989;53.016;8.346;2023-02-13T05:34:30;58.07;;;22.37;;
1977;SDS011;989;53.016;8.346;2023-02-13T05:36:56;56.53;;;21.47;;
1977;SDS011;989;53.016;8.346;2023-02-13T05:39:21;55.57;;;21.80;;
1977;SDS011;989;53.016;8.346;2023-02-13T05:41:47;65.33;;;22.67;;
1977;SDS011;989;53.016;8.346;2023-02-13T05:44:13;67.13;;;22.50;;
1977;SDS011;989;53.016;8.346;2023-02-13T05:46:40;65.03;;;22.33;;
1977;SDS011;989;53.016;8.346;2023-02-13T05:49:07;63.13;;;21.90;;
1977;SDS011;989;53.016;8.346;2023-02-13T05:51:34;54.03;;;21.55;;
1977;SDS011;989;53.016;8.346;2023-02-13T05:54:00;54.40;;;23.27;;
1977;SDS011;989;53.016;8.346;2023-02-13T05:56:26;67.33;;;22.77;;
1977;SDS011;989;53.016;8.346;2023-02-13T05:58:54;63.95;;;23.70;;
1977;SDS011;989;53.016;8.346;2023-02-13T06:01:21;73.63;;;24.80;;
1977;SDS011;989;53.016;8.346;2023-02-13T06:03:47;72.18;;;22.48;;
1977;SDS011;989;53.016;8.346;2023-02-13T06:06:13;67.73;;;23.23;;
1977;SDS011;989;53.016;8.346;2023-02-13T06:08:40;65.03;;;21.35;;
1977;SDS011;989;53.016;8.346;2023-02-13T06:11:06;69.50;;;24.47;;
1977;SDS011;989;53.016;8.346;2023-02-13T06:13:32;60.75;;;24.23;;
1977;SDS011;989;53.016;8.346;2023-02-13T06:15:57;74.97;;;23.30;;
1977;SDS011;989;53.016;8.346;2023-02-13T06:18:23;65.90;;;26.13;;
1977;SDS011;989;53.016;8.346;2023-02-13T06:20:48;93.40;;;26.60;;
1977;SDS011;989;53.016;8.346;2023-02-13T06:23:14;66.33;;;24.77;;
1977;SDS011;989;53.016;8.346;2023-02-13T06:25:41;88.05;;;25.10;;
1977;SDS011;989;53.016;8.346;2023-02-13T06:28:07;69.53;;;23.40;;
1977;SDS011;989;53.016;8.346;2023-02-13T06:30:33;64.43;;;24.48;;
1977;SDS011;989;53.016;8.346;2023-02-13T06:32:59;59.37;;;23.43;;
1977;SDS011;989;53.016;8.346;2023-02-13T06:35:25;80.37;;;23.30;;
1977;SDS011;989;53.016;8.346;2023-02-13T06:37:51;62.25;;;24.13;;
1977;SDS011;989;53.016;8.346;2023-02-13T06:40:16;81.67;;;24.43;;
1977;SDS011;989;53.016;8.346;2023-02-13T06:42:43;70.60;;;24.90;;
1977;SDS011;989;53.016;8.346;2023-02-13T06:45:09;73.78;;;22.33;;
1977;SDS011;989;53.016;8.346;2023-02-13T06:47:39;100.32;;;24.95;;
1977;SDS011;989;53.016;8.346;2023-02-13T06:50:07;80.75;;;23.83;;
1977;SDS011;989;53.016;8.346;2023-02-13T06:52:33;81.20;;;26.15;;
1977;SDS011;989;53.016;8.346;2023-02-13T06:55:00;88.43;;;25.40;;
1977;SDS011;989;53.016;8.346;2023-02-13T06:57:25;97.13;;;26.30;;
1977;SDS011;989;53.016;8.346;2023-02-13T06:59:51;70.60;;;25.03;;
1977;SDS011;989;53.016;8.346;2023-02-13T07:02:17;85.60;;;24.37;;
1977;SDS011;989;53.016;8.346;2023-02-13T07:04:42;57.90;;;22.73;;
1977;SDS011;989;53.016;8.346;2023-02-13T07:07:08;72.53;;;23.53;;
1977;SDS011;989;53.016;8.346;2023-02-13T07:09:34;59.33;;;23.60;;
1977;SDS011;989;53.016;8.346;2023-02-13T07:12:03;64.28;;;24.27;;
1977;SDS011;989;53.016;8.346;2023-02-13T07:14:29;78.97;;;24.85;;
1977;SDS011;989;53.016;8.346;2023-02-13T07:16:55;171.27;;;26.53;;
1977;SDS011;989;53.016;8.346;2023-02-13T07:19:21;120.60;;;24.13;;
1977;SDS011;989;53.016;8.346;2023-02-13T07:21:47;110.70;;;25.60;;
1977;SDS011;989;53.016;8.346;2023-02-13T07:24:12;73.97;;;25.40;;
1977;SDS011;989;53.016;8.346;2023-02-13T07:26:38;87.70;;;22.63;;
1977;SDS011;989;53.016;8.346;2023-02-13T07:29:03;69.30;;;24.73;;
1977;SDS011;989;53.016;8.346;2023-02-13T07:31:31;87.03;;;25.52;;
1977;SDS011;989;53.016;8.346;2023-02-13T07:33:58;73.10;;;25.77;;
1977;SDS011;989;53.016;8.346;2023-02-13T07:36:24;73.53;;;23.83;;
1977;SDS011;989;53.016;8.346;2023-02-13T07:38:50;86.55;;;26.92;;
1977;SDS011;989;53.016;8.346;2023-02-13T07:41:16;78.70;;;26.77;;
1977;SDS011;989;53.016;8.346;2023-02-13T07:43:42;75.00;;;25.73;;
1977;SDS011;989;53.016;8.346;2023-02-13T07:46:08;75.87;;;27.40;;
1977;SDS011;989;53.016;8.346;2023-02-13T07:48:34;83.60;;;26.90;;
1977;SDS011;989;53.016;8.346;2023-02-13T07:51:03;124.13;;;30.37;;
1977;SDS011;989;53.016;8.346;2023-02-13T07:53:30;97.57;;;29.35;;
1977;SDS011;989;53.016;8.346;2023-02-13T07:55:56;115.93;;;30.80;;
1977;SDS011;989;53.016;8.346;2023-02-13T07:58:22;108.60;;;29.40;;
1977;SDS011;989;53.016;8.346;2023-02-13T08:00:47;103.37;;;29.63;;
1977;SDS011;989;53.016;8.346;2023-02-13T08:03:13;111.03;;;29.50;;
1977;SDS011;989;53.016;8.346;2023-02-13T08:05:39;105.93;;;31.07;;
1977;SDS011;989;53.016;8.346;2023-02-13T08:08:05;92.03;;;28.70;;
1977;SDS011;989;53.016;8.346;2023-02-13T08:10:31;99.95;;;28.63;;
1977;SDS011;989;53.016;8.346;2023-02-13T08:13:15;94.60;;;29.48;;
1977;SDS011;989;53.016;8.346;2023-02-13T08:15:41;100.55;;;32.75;;
1977;SDS011;989;53.016;8.346;2023-02-13T08:18:11;95.18;;;30.33;;
1977;SDS011;989;53.016;8.346;2023-02-13T08:20:37;113.63;;;30.55;;
1977;SDS011;989;53.016;8.346;2023-02-13T08:23:06;92.17;;;29.63;;
1977;SDS011;989;53.016;8.346;2023-02-13T08:25:36;101.03;;;30.50;;
1977;SDS011;989;53.016;8.346;2023-02-13T08:28:03;95.10;;;31.20;;
1977;SDS011;989;53.016;8.346;2023-02-13T08:30:29;84.00;;;28.00;;
1977;SDS011;989;53.016;8.346;2023-02-13T08:32:55;86.53;;;30.65;;
1977;SDS011;989;53.016;8.346;2023-02-13T08:35:21;100.50;;;31.60;;
1977;SDS011;989;53.016;8.346;2023-02-13T08:37:51;96.72;;;30.50;;
1977;SDS011;989;53.016;8.346;2023-02-13T08:40:17;75.27;;;27.50;;
1977;SDS011;989;53.016;8.346;2023-02-13T08:42:43;90.40;;;31.07;;
1977;SDS011;989;53.016;8.346;2023-02-13T08:45:09;70.37;;;24.97;;
1977;SDS011;989;53.016;8.346;2023-02-13T08:47:35;74.03;;;26.07;;
1977;SDS011;989;53.016;8.346;2023-02-13T08:50:02;71.37;;;30.00;;
1977;SDS011;989;53.016;8.346;2023-02-13T08:52:28;88.33;;;28.03;;
1977;SDS011;989;53.016;8.346;2023-02-13T08:54:54;80.83;;;28.70;;
1977;SDS011;989;53.016;8.346;2023-02-13T08:57:19;69.73;;;25.30;;
1977;SDS011;989;53.016;8.346;2023-02-13T08:59:45;77.77;;;27.20;;
1977;SDS011;989;53.016;8.346;2023-02-13T09:02:11;76.90;;;28.07;;
1977;SDS011;989;53.016;8.346;2023-02-13T09:04:37;99.80;;;28.37;;
1977;SDS011;989;53.016;8.346;2023-02-13T09:07:02;80.10;;;29.67;;
1977;SDS011;989;53.016;8.346;2023-02-13T09:09:28;74.70;;;29.23;;
1977;SDS011;989;53.016;8.346;2023-02-13T09:11:53;91.83;;;28.47;;
1977;SDS011;989;53.016;8.346;2023-02-13T09:14:22;94.50;;;29.90;;
1977;SDS011;989;53.016;8.346;2023-02-13T09:16:48;88.60;;;32.33;;
1977;SDS011;989;53.016;8.346;2023-02-13T09:19:14;93.27;;;30.93;;
1977;SDS011;989;53.016;8.346;2023-02-13T09:21:39;89.87;;;33.50;;
1977;SDS011;989;53.016;8.346;2023-02-13T09:24:06;85.27;;;29.90;;
1977;SDS011;989;53.016;8.346;2023-02-13T09:26:33;86.80;;;30.37;;
1977;SDS011;989;53.016;8.346;2023-02-13T09:28:58;90.67;;;29.40;;
1977;SDS011;989;53.016;8.346;2023-02-13T09:31:24;71.43;;;30.30;;
1977;SDS011;989;53.016;8.346;2023-02-13T09:33:50;79.70;;;28.43;;
1977;SDS011;989;53.016;8.346;2023-02-13T09:36:17;77.10;;;29.57;;
1977;SDS011;989;53.016;8.346;2023-02-13T09:38:46;90.83;;;29.67;;
1977;SDS011;989;53.016;8.346;2023-02-13T09:41:27;82.03;;;29.40;;
1977;SDS011;989;53.016;8.346;2023-02-13T09:44:05;77.67;;;29.47;;
1977;SDS011;989;53.016;8.346;2023-02-13T09:47:19;83.50;;;28.50;;
1977;SDS011;989;53.016;8.346;2023-02-13T09:49:55;84.60;;;28.70;;
1977;SDS011;989;53.016;8.346;2023-02-13T09:52:44;73.30;;;29.87;;
1977;SDS011;989;53.016;8.346;2023-02-13T09:55:21;72.70;;;27.17;;
1977;SDS011;989;53.016;8.346;2023-02-13T10:01:25;65.00;;;27.40;;
1977;SDS011;989;53.016;8.346;2023-02-13T10:04:02;75.27;;;28.50;;
1977;SDS011;989;53.016;8.346;2023-02-13T10:09:44;67.77;;;28.33;;
1977;SDS011;989;53.016;8.346;2023-02-13T10:12:32;62.23;;;26.90;;
1977;SDS011;989;53.016;8.346;2023-02-13T10:15:45;59.93;;;25.70;;
1977;SDS011;989;53.016;8.346;2023-02-13T10:18:20;67.93;;;26.73;;
1977;SDS011;989;53.016;8.346;2023-02-13T10:20:56;74.20;;;26.23;;
1977;SDS011;989;53.016;8.346;2023-02-13T10:23:38;63.63;;;26.40;;
1977;SDS011;989;53.016;8.346;2023-02-13T10:26:31;67.63;;;26.83;;
1977;SDS011;989;53.016;8.346;2023-02-13T10:29:21;80.10;;;25.77;;
1977;SDS011;989;53.016;8.346;2023-02-13T10:32:28;53.73;;;26.13;;
1977;SDS011;989;53.016;8.346;2023-02-13T10:35:15;54.73;;;23.87;;
1977;SDS011;989;53.016;8.346;2023-02-13T10:37:54;61.03;;;26.70;;
1977;SDS011;989;53.016;8.346;2023-02-13T10:40:35;58.80;;;25.60;;
1977;SDS011;989;53.016;8.346;2023-02-13T10:43:06;58.27;;;26.20;;
1977;SDS011;989;53.016;8.346;2023-02-13T10:48:38;63.80;;;26.10;;
1977;SDS011;989;53.016;8.346;2023-02-13T10:52:22;55.40;;;25.13;;
1977;SDS011;989;53.016;8.346;2023-02-13T10:55:04;58.37;;;23.97;;
1977;SDS011;989;53.016;8.346;2023-02-13T11:03:26;56.90;;;26.33;;
1977;SDS011;989;53.016;8.346;2023-02-13T11:05:54;47.80;;;23.77;;
1977;SDS011;989;53.016;8.346;2023-02-13T11:10:57;52.87;;;25.80;;
1977;SDS011;989;53.016;8.346;2023-02-13T11:13:23;47.50;;;23.87;;
1977;SDS011;989;53.016;8.346;2023-02-13T11:18:31;43.23;;;21.77;;
1977;SDS011;989;53.016;8.346;2023-02-13T11:21:15;45.00;;;23.07;;
1977;SDS011;989;53.016;8.346;2023-02-13T11:23:49;40.30;;;21.30;;
1977;SDS011;989;53.016;8.346;2023-02-13T11:26:35;45.13;;;21.43;;
1977;SDS011;989;53.016;8.346;2023-02-13T11:29:05;47.30;;;20.77;;
1977;SDS011;989;53.016;8.346;2023-02-13T11:34:39;42.53;;;20.87;;
1977;SDS011;989;53.016;8.346;2023-02-13T11:39:36;39.60;;;19.60;;
1977;SDS011;989;53.016;8.346;2023-02-13T11:42:11;42.70;;;21.27;;
1977;SDS011;989;53.016;8.346;2023-02-13T11:44:39;37.60;;;19.37;;
1977;SDS011;989;53.016;8.346;2023-02-13T11:47:06;39.73;;;21.40;;
1977;SDS011;989;53.016;8.346;2023-02-13T11:49:34;40.37;;;20.00;;
1977;SDS011;989;53.016;8.346;2023-02-13T11:52:06;40.47;;;19.93;;
1977;SDS011;989;53.016;8.346;2023-02-13T11:54:55;36.30;;;19.37;;
1977;SDS011;989;53.016;8.346;2023-02-13T11:57:34;32.43;;;18.17;;
1977;SDS011;989;53.016;8.346;2023-02-13T12:02:56;35.17;;;18.30;;
1977;SDS011;989;53.016;8.346;2023-02-13T12:05:23;35.63;;;18.03;;
1977;SDS011;989;53.016;8.346;2023-02-13T12:07:59;41.67;;;19.63;;
1977;SDS011;989;53.016;8.346;2023-02-13T12:10:26;38.23;;;19.40;;
1977;SDS011;989;53.016;8.346;2023-02-13T12:12:55;37.40;;;18.53;;
1977;SDS011;989;53.016;8.346;2023-02-13T12:15:34;37.73;;;19.57;;
1977;SDS011;989;53.016;8.346;2023-02-13T12:20:34;39.70;;;20.23;;
1977;SDS011;989;53.016;8.346;2023-02-13T12:23:21;35.97;;;17.83;;
1977;SDS011;989;53.016;8.346;2023-02-13T12:31:49;39.47;;;20.00;;
1977;SDS011;989;53.016;8.346;2023-02-13T12:38:03;30.17;;;16.87;;
1977;SDS011;989;53.016;8.346;2023-02-13T12:40:48;32.93;;;19.37;;
1977;SDS011;989;53.016;8.346;2023-02-13T12:46:53;39.33;;;19.17;;
1977;SDS011;989;53.016;8.346;2023-02-13T12:52:30;36.63;;;19.47;;
1977;SDS011;989;53.016;8.346;2023-02-13T12:55:27;40.40;;;21.77;;
1977;SDS011;989;53.016;8.346;2023-02-13T12:58:15;37.80;;;19.30;;
1977;SDS011;989;53.016;8.346;2023-02-13T13:06:57;40.03;;;18.53;;
1977;SDS011;989;53.016;8.346;2023-02-13T13:12:38;38.10;;;20.37;;
1977;SDS011;989;53.016;8.346;2023-02-13T13:15:39;44.20;;;22.43;;
1977;SDS011;989;53.016;8.346;2023-02-13T13:23:56;35.70;;;19.87;;
1977;SDS011;989;53.016;8.346;2023-02-13T13:26:37;38.50;;;20.37;;
1977;SDS011;989;53.016;8.346;2023-02-13T13:29:18;36.40;;;18.27;;
1977;SDS011;989;53.016;8.346;2023-02-13T13:32:06;41.57;;;18.80;;
1977;SDS011;989;53.016;8.346;2023-02-13T13:34:38;42.77;;;21.03;;
1977;SDS011;989;53.016;8.346;2023-02-13T13:37:05;40.97;;;21.00;;
1977;SDS011;989;53.016;8.346;2023-02-13T13:43:16;36.80;;;18.73;;
1977;SDS011;989;53.016;8.346;2023-02-13T13:51:47;38.33;;;21.50;;
1977;SDS011;989;53.016;8.346;2023-02-13T13:54:17;37.43;;;19.30;;
1977;SDS011;989;53.016;8.346;2023-02-13T13:59:19;42.40;;;20.27;;
1977;SDS011;989;53.016;8.346;2023-02-13T14:07:38;44.33;;;21.60;;
1977;SDS011;989;53.016;8.346;2023-02-13T14:12:49;41.50;;;20.20;;
1977;SDS011;989;53.016;8.346;2023-02-13T14:20:37;39.33;;;21.67;;
1977;SDS011;989;53.016;8.346;2023-02-13T14:31:19;45.70;;;22.23;;
1977;SDS011;989;53.016;8.346;2023-02-13T14:36:36;43.57;;;22.87;;
1977;SDS011;989;53.016;8.346;2023-02-13T14:44:19;49.40;;;24.10;;
1977;SDS011;989;53.016;8.346;2023-02-13T14:46:50;48.63;;;24.57;;
1977;SDS011;989;53.016;8.346;2023-02-13T14:49:18;49.23;;;23.27;;
1977;SDS011;989;53.016;8.346;2023-02-13T14:51:53;59.53;;;25.20;;
1977;SDS011;989;53.016;8.346;2023-02-13T14:54:33;50.67;;;24.13;;
1977;SDS011;989;53.016;8.346;2023-02-13T14:57:26;53.57;;;26.03;;
1977;SDS011;989;53.016;8.346;2023-02-13T14:59:58;53.83;;;24.23;;
1977;SDS011;989;53.016;8.346;2023-02-13T15:02:52;51.60;;;25.67;;
1977;SDS011;989;53.016;8.346;2023-02-13T15:05:23;53.60;;;26.70;;
1977;SDS011;989;53.016;8.346;2023-02-13T15:08:04;51.80;;;24.67;;
1977;SDS011;989;53.016;8.346;2023-02-13T15:10:44;52.43;;;26.60;;
1977;SDS011;989;53.016;8.346;2023-02-13T15:15:42;57.40;;;26.93;;
1977;SDS011;989;53.016;8.346;2023-02-13T15:18:25;52.57;;;24.07;;
1977;SDS011;989;53.016;8.346;2023-02-13T15:20:55;61.80;;;26.40;;
1977;SDS011;989;53.016;8.346;2023-02-13T15:23:28;53.00;;;25.97;;
1977;SDS011;989;53.016;8.346;2023-02-13T15:25:56;46.97;;;24.00;;
1977;SDS011;989;53.016;8.346;2023-02-13T15:28:30;52.43;;;26.67;;
1977;SDS011;989;53.016;8.346;2023-02-13T15:30:59;54.47;;;24.60;;
1977;SDS011;989;53.016;8.346;2023-02-13T15:33:33;57.13;;;25.13;;
1977;SDS011;989;53.016;8.346;2023-02-13T15:36:12;47.60;;;24.77;;
1977;SDS011;989;53.016;8.346;2023-02-13T15:38:57;61.90;;;24.90;;
1977;SDS011;989;53.016;8.346;2023-02-13T15:41:35;52.03;;;24.60;;
1977;SDS011;989;53.016;8.346;2023-02-13T15:44:03;53.60;;;25.13;;
1977;SDS011;989;53.016;8.346;2023-02-13T15:46:30;54.70;;;23.93;;
1977;SDS011;989;53.016;8.346;2023-02-13T15:49:05;63.80;;;25.20;;
1977;SDS011;989;53.016;8.346;2023-02-13T15:51:43;48.93;;;24.50;;
1977;SDS011;989;53.016;8.346;2023-02-13T15:54:25;56.50;;;24.70;;
1977;SDS011;989;53.016;8.346;2023-02-13T15:56:55;62.33;;;25.57;;
1977;SDS011;989;53.016;8.346;2023-02-13T15:59:24;52.87;;;24.33;;
1977;SDS011;989;53.016;8.346;2023-02-13T16:01:56;50.47;;;24.13;;
1977;SDS011;989;53.016;8.346;2023-02-13T16:04:24;56.53;;;25.83;;
1977;SDS011;989;53.016;8.346;2023-02-13T16:06:50;54.40;;;24.73;;
1977;SDS011;989;53.016;8.346;2023-02-13T16:09:23;53.67;;;25.47;;
1977;SDS011;989;53.016;8.346;2023-02-13T16:12:00;58.17;;;27.63;;
1977;SDS011;989;53.016;8.346;2023-02-13T16:14:43;57.03;;;23.80;;
1977;SDS011;989;53.016;8.346;2023-02-13T16:17:17;58.27;;;24.47;;
1977;SDS011;989;53.016;8.346;2023-02-13T16:20:15;61.13;;;25.40;;
1977;SDS011;989;53.016;8.346;2023-02-13T16:22:54;57.57;;;23.67;;
1977;SDS011;989;53.016;8.346;2023-02-13T16:25:41;51.43;;;23.90;;
1977;SDS011;989;53.016;8.346;2023-02-13T16:28:15;60.27;;;25.60;;
1977;SDS011;989;53.016;8.346;2023-02-13T16:30:50;54.33;;;25.40;;
1977;SDS011;989;53.016;8.346;2023-02-13T16:33:32;62.43;;;24.70;;
1977;SDS011;989;53.016;8.346;2023-02-13T16:38:38;51.97;;;25.37;;
1977;SDS011;989;53.016;8.346;2023-02-13T16:56:38;69.37;;;27.17;;
1977;SDS011;989;53.016;8.346;2023-02-13T17:07:33;60.50;;;25.73;;
1977;SDS011;989;53.016;8.346;2023-02-13T17:12:51;82.70;;;29.80;;
1977;SDS011;989;53.016;8.346;2023-02-13T17:15:21;73.07;;;28.20;;
1977;SDS011;989;53.016;8.346;2023-02-13T17:17:49;68.47;;;28.80;;
1977;SDS011;989;53.016;8.346;2023-02-13T17:20:16;75.70;;;31.33;;
1977;SDS011;989;53.016;8.346;2023-02-13T17:22:46;66.10;;;29.13;;
1977;SDS011;989;53.016;8.346;2023-02-13T17:25:21;76.70;;;33.57;;
1977;SDS011;989;53.016;8.346;2023-02-13T17:27:51;101.97;;;49.50;;
1977;SDS011;989;53.016;8.346;2023-02-13T17:30:24;64.87;;;26.80;;
1977;SDS011;989;53.016;8.346;2023-02-13T17:33:02;73.67;;;28.40;;
1977;SDS011;989;53.016;8.346;2023-02-13T17:35:31;67.77;;;26.20;;
1977;SDS011;989;53.016;8.346;2023-02-13T17:37:57;55.27;;;26.70;;
1977;SDS011;989;53.016;8.346;2023-02-13T17:40:24;59.13;;;24.20;;
1977;SDS011;989;53.016;8.346;2023-02-13T17:42:53;63.83;;;28.60;;
1977;SDS011;989;53.016;8.346;2023-02-13T17:45:22;54.63;;;24.80;;
1977;SDS011;989;53.016;8.346;2023-02-13T17:47:51;55.93;;;27.67;;
1977;SDS011;989;53.016;8.346;2023-02-13T17:50:17;68.67;;;26.73;;
1977;SDS011;989;53.016;8.346;2023-02-13T17:52:44;61.80;;;27.10;;
1977;SDS011;989;53.016;8.346;2023-02-13T17:55:17;81.23;;;32.20;;
1977;SDS011;989;53.016;8.346;2023-02-13T17:57:49;64.03;;;29.27;;
1977;SDS011;989;53.016;8.346;2023-02-13T18:00:17;77.37;;;29.37;;
1977;SDS011;989;53.016;8.346;2023-02-13T18:02:44;66.20;;;32.20;;
1977;SDS011;989;53.016;8.346;2023-02-13T18:05:12;73.80;;;28.03;;
1977;SDS011;989;53.016;8.346;2023-02-13T18:07:40;58.33;;;26.30;;
1977;SDS011;989;53.016;8.346;2023-02-13T18:10:07;61.45;;;27.75;;
1977;SDS011;989;53.016;8.346;2023-02-13T18:12:39;87.93;;;31.02;;
1977;SDS011;989;53.016;8.346;2023-02-13T18:15:05;80.95;;;31.30;;
1977;SDS011;989;53.016;8.346;2023-02-13T18:17:31;56.28;;;25.85;;
1977;SDS011;989;53.016;8.346;2023-02-13T18:19:57;75.27;;;28.43;;
1977;SDS011;989;53.016;8.346;2023-02-13T18:22:23;75.90;;;29.83;;